Time;durP1;ratioP1;P1;durP2;ratioP2;P2;SDS_P1;SDS_P2;PMS_P1;PMS_P2;Temp;Humidity;BMP_temperature;BMP_pressure;BME280_temperature;BME280_humidity;BME280_pressure;Samples;Min_cycle;Max_cycle;Signal;HPM_P1;HPM_P2
2021/01/16 00:01:48;;;;;;;77.45;31.17;;;;;;;;;;5075066;28;20044;-65
2021/01/16 00:04:13;;;;;;;77.88;28.77;;;;;;;;;;5074927;28;20095;-65
2021/01/16 00:06:39;;;;;;;73.20;25.88;;;;;;;;;;5074014;28;20016;-65
2021/01/16 00:09:05;;;;;;;75.32;27.98;;;;;;;;;;5074810;28;20025;-65
2021/01/16 00:11:30;;;;;;;67.75;26.02;;;;;;;;;;5073766;28;20016;-65
2021/01/16 00:13:56;;;;;;;58.97;22.80;;;;;;;;;;5074528;28;20024;-65
2021/01/16 00:16:21;;;;;;;67.57;25.13;;;;;;;;;;5074606;28;20052;-65
2021/01/16 00:18:47;;;;;;;63.20;22.73;;;;;;;;;;5073628;28;20012;-65
2021/01/16 00:21:12;;;;;;;61.08;23.08;;;;;;;;;;5073369;28;20373;-66
2021/01/16 00:23:37;;;;;;;56.75;21.67;;;;;;;;;;5073158;28;20428;-65
2021/01/16 00:26:03;;;;;;;54.45;20.20;;;;;;;;;;5074548;28;20013;-65
2021/01/16 00:28:31;;;;;;;62.08;20.40;;;;;;;;;;5074541;28;20020;-65
2021/01/16 00:30:58;;;;;;;53.83;20.47;;;;;;;;;;5073327;28;20070;-65
2021/01/16 00:33:25;;;;;;;52.53;21.08;;;;;;;;;;5072816;28;20048;-65
2021/01/16 00:35:53;;;;;;;59.70;20.55;;;;;;;;;;5074142;28;20032;-66
2021/01/16 00:38:20;;;;;;;51.75;20.85;;;;;;;;;;5056280;28;20025;-65
2021/01/16 00:40:45;;;;;;;58.70;21.05;;;;;;;;;;5074108;28;20044;-65
2021/01/16 00:43:13;;;;;;;58.60;21.13;;;;;;;;;;5073093;28;20025;-65
2021/01/16 00:45:40;;;;;;;58.03;20.33;;;;;;;;;;5072915;28;20016;-65
2021/01/16 00:48:16;;;;;;;53.08;20.33;;;;;;;;;;5072475;28;20541;-65
2021/01/16 00:50:42;;;;;;;56.35;19.67;;;;;;;;;;5071826;28;20027;-65
2021/01/16 00:53:08;;;;;;;58.22;21.08;;;;;;;;;;5055949;28;20020;-66
2021/01/16 00:55:35;;;;;;;55.28;21.02;;;;;;;;;;5073771;28;20034;-65
2021/01/16 00:58:07;;;;;;;59.15;20.98;;;;;;;;;;5055858;28;20480;-65
2021/01/16 01:00:32;;;;;;;49.75;19.48;;;;;;;;;;5073554;28;20016;-65
2021/01/16 01:02:58;;;;;;;57.97;22.17;;;;;;;;;;5073684;28;20484;-66
2021/01/16 01:05:25;;;;;;;58.58;21.55;;;;;;;;;;5073809;28;20392;-66
2021/01/16 01:07:52;;;;;;;59.38;21.83;;;;;;;;;;5072403;28;20013;-66
2021/01/16 01:10:21;;;;;;;49.88;19.92;;;;;;;;;;5072357;28;20096;-66
2021/01/16 01:12:49;;;;;;;55.92;21.38;;;;;;;;;;5072520;28;20016;-65
2021/01/16 01:15:15;;;;;;;60.78;21.85;;;;;;;;;;5055581;28;20028;-65
2021/01/16 01:17:41;;;;;;;58.55;21.83;;;;;;;;;;5054679;28;20024;-65
2021/01/16 01:20:07;;;;;;;58.80;20.17;;;;;;;;;;5054804;28;20104;-65
2021/01/16 01:22:35;;;;;;;57.88;22.15;;;;;;;;;;5073096;28;20100;-66
2021/01/16 01:25:01;;;;;;;63.30;21.52;;;;;;;;;;5072168;28;20017;-65
2021/01/16 01:27:27;;;;;;;61.33;22.05;;;;;;;;;;5055380;28;20028;-66
2021/01/16 01:29:52;;;;;;;60.25;21.13;;;;;;;;;;5073230;28;20031;-65
2021/01/16 01:32:18;;;;;;;55.85;21.10;;;;;;;;;;5073342;28;20017;-66
2021/01/16 01:34:45;;;;;;;56.42;22.42;;;;;;;;;;5071375;28;20056;-65
2021/01/16 01:37:10;;;;;;;59.40;21.90;;;;;;;;;;5072915;28;20039;-65
2021/01/16 01:39:37;;;;;;;55.58;21.63;;;;;;;;;;5073138;28;20013;-65
2021/01/16 01:42:03;;;;;;;56.45;22.25;;;;;;;;;;5071584;28;20039;-66
2021/01/16 01:44:29;;;;;;;63.08;23.17;;;;;;;;;;5071538;28;20013;-65
2021/01/16 01:46:55;;;;;;;65.43;24.00;;;;;;;;;;5072778;28;20492;-65
2021/01/16 01:49:21;;;;;;;62.60;23.27;;;;;;;;;;5072182;28;20108;-65
2021/01/16 01:51:46;;;;;;;70.13;24.52;;;;;;;;;;5072802;28;20044;-65
2021/01/16 01:54:14;;;;;;;56.42;23.30;;;;;;;;;;5072698;28;20106;-65
2021/01/16 01:56:41;;;;;;;55.50;23.23;;;;;;;;;;5072496;28;20104;-65
2021/01/16 01:59:08;;;;;;;52.20;21.73;;;;;;;;;;5072521;28;20024;-65
2021/01/16 02:01:38;;;;;;;56.25;19.98;;;;;;;;;;5072649;28;20012;-65
2021/01/16 02:04:05;;;;;;;55.88;22.02;;;;;;;;;;5071282;28;20032;-65
2021/01/16 02:06:31;;;;;;;56.40;18.73;;;;;;;;;;5071511;28;20385;-65
2021/01/16 02:08:57;;;;;;;53.38;19.92;;;;;;;;;;5072648;28;20497;-66
2021/01/16 02:11:23;;;;;;;54.83;20.25;;;;;;;;;;5071143;28;20388;-65
2021/01/16 02:13:49;;;;;;;58.75;21.08;;;;;;;;;;5071282;28;20024;-65
2021/01/16 02:16:17;;;;;;;50.63;19.45;;;;;;;;;;5072305;28;20351;-66
2021/01/16 02:18:45;;;;;;;52.75;19.55;;;;;;;;;;5071873;28;20032;-65
2021/01/16 02:21:12;;;;;;;65.97;22.75;;;;;;;;;;5072288;28;20423;-65
2021/01/16 02:23:38;;;;;;;50.35;19.40;;;;;;;;;;5071368;28;20013;-65
2021/01/16 02:26:14;;;;;;;53.92;19.48;;;;;;;;;;5072519;28;20119;-65
2021/01/16 02:28:46;;;;;;;46.53;18.80;;;;;;;;;;5071199;28;20040;-65
2021/01/16 02:31:12;;;;;;;51.85;18.95;;;;;;;;;;5070933;28;20522;-65
2021/01/16 02:33:40;;;;;;;52.45;18.40;;;;;;;;;;5071968;28;20409;-65
2021/01/16 02:36:17;;;;;;;52.83;19.73;;;;;;;;;;5072079;28;20012;-65
2021/01/16 02:38:49;;;;;;;51.22;18.35;;;;;;;;;;5070932;28;20031;-65
2021/01/16 02:41:26;;;;;;;42.67;17.48;;;;;;;;;;5070749;28;20496;-66
2021/01/16 02:43:57;;;;;;;52.10;18.48;;;;;;;;;;5071166;28;20013;-65
2021/01/16 02:46:25;;;;;;;55.20;18.65;;;;;;;;;;5071841;28;20533;-65
2021/01/16 02:49:01;;;;;;;49.30;18.38;;;;;;;;;;5071856;28;20056;-65
2021/01/16 02:51:31;;;;;;;44.60;18.77;;;;;;;;;;5070800;28;20016;-65
2021/01/16 02:53:59;;;;;;;47.60;18.48;;;;;;;;;;5070563;28;20474;-65
2021/01/16 02:56:27;;;;;;;45.35;17.48;;;;;;;;;;5070609;28;20024;-65
2021/01/16 02:58:54;;;;;;;48.13;18.70;;;;;;;;;;5070765;28;20013;-65
2021/01/16 03:01:20;;;;;;;40.75;16.88;;;;;;;;;;5071928;28;20028;-66
2021/01/16 03:03:46;;;;;;;49.30;17.00;;;;;;;;;;5072328;28;20027;-65
2021/01/16 03:06:11;;;;;;;40.80;17.52;;;;;;;;;;5070583;28;20108;-65
2021/01/16 03:08:38;;;;;;;42.05;16.00;;;;;;;;;;5071858;28;20025;-65
2021/01/16 03:11:03;;;;;;;38.80;15.70;;;;;;;;;;5070561;28;20052;-65
2021/01/16 03:13:29;;;;;;;42.60;15.48;;;;;;;;;;5071859;28;20473;-65
2021/01/16 03:15:56;;;;;;;33.63;13.82;;;;;;;;;;5070596;28;20095;-65
2021/01/16 03:18:23;;;;;;;40.25;15.02;;;;;;;;;;5071617;28;20424;-65
2021/01/16 03:20:49;;;;;;;39.22;14.23;;;;;;;;;;5071337;28;20029;-65
2021/01/16 03:23:16;;;;;;;37.08;13.40;;;;;;;;;;5070210;28;20016;-65
2021/01/16 03:25:43;;;;;;;35.05;13.30;;;;;;;;;;5071956;28;20567;-65
2021/01/16 03:28:08;;;;;;;32.60;13.27;;;;;;;;;;5070401;28;20461;-65
2021/01/16 03:30:34;;;;;;;35.30;13.80;;;;;;;;;;5070278;28;20039;-65
2021/01/16 03:32:59;;;;;;;34.25;13.15;;;;;;;;;;5070333;28;20027;-66
2021/01/16 03:35:25;;;;;;;33.92;12.85;;;;;;;;;;5051491;28;20037;-65
2021/01/16 03:37:52;;;;;;;35.53;12.77;;;;;;;;;;5050328;28;20020;-65
2021/01/16 03:40:17;;;;;;;33.53;14.07;;;;;;;;;;5051742;28;20056;-65
2021/01/16 03:42:43;;;;;;;44.00;14.52;;;;;;;;;;5053243;28;20391;-65
2021/01/16 03:45:10;;;;;;;30.55;11.82;;;;;;;;;;5053948;28;20428;-65
2021/01/16 03:47:36;;;;;;;33.78;13.65;;;;;;;;;;5055282;28;20021;-65
2021/01/16 03:50:02;;;;;;;37.40;13.90;;;;;;;;;;5054610;28;20087;-65
2021/01/16 03:52:29;;;;;;;38.25;13.48;;;;;;;;;;5053577;28;20021;-65
2021/01/16 03:54:55;;;;;;;32.40;12.75;;;;;;;;;;5053817;28;20025;-65
2021/01/16 03:57:21;;;;;;;35.72;13.85;;;;;;;;;;5053751;28;20103;-66
2021/01/16 03:59:46;;;;;;;36.20;13.80;;;;;;;;;;5055075;28;20021;-65
2021/01/16 04:02:12;;;;;;;41.47;13.65;;;;;;;;;;5055046;28;20021;-65
2021/01/16 04:04:37;;;;;;;39.40;14.43;;;;;;;;;;5054685;28;20025;-65
2021/01/16 04:07:05;;;;;;;42.22;13.90;;;;;;;;;;5053579;28;20013;-66
2021/01/16 04:09:30;;;;;;;36.10;13.52;;;;;;;;;;5053885;28;20427;-65
2021/01/16 04:11:56;;;;;;;33.78;13.45;;;;;;;;;;5054759;28;20028;-65
2021/01/16 04:14:22;;;;;;;33.67;13.60;;;;;;;;;;5053404;28;20025;-65
2021/01/16 04:16:48;;;;;;;34.00;13.00;;;;;;;;;;5054665;28;20036;-65
2021/01/16 04:19:14;;;;;;;29.50;12.02;;;;;;;;;;5036031;28;20017;-65
2021/01/16 04:21:40;;;;;;;25.95;11.82;;;;;;;;;;5054586;28;20044;-66
2021/01/16 04:24:06;;;;;;;28.95;12.25;;;;;;;;;;5054406;28;20009;-65
2021/01/16 04:26:33;;;;;;;33.38;12.60;;;;;;;;;;5054253;28;20020;-65
2021/01/16 04:28:59;;;;;;;32.45;11.30;;;;;;;;;;5054390;28;20017;-65
2021/01/16 04:31:24;;;;;;;27.92;11.05;;;;;;;;;;5054278;28;20539;-66
2021/01/16 04:33:50;;;;;;;27.83;11.00;;;;;;;;;;5060805;28;20048;-65
2021/01/16 04:36:15;;;;;;;24.25;10.57;;;;;;;;;;5074297;28;20078;-65
2021/01/16 04:38:41;;;;;;;31.15;10.75;;;;;;;;;;5072648;28;20362;-65
2021/01/16 04:41:07;;;;;;;26.75;9.40;;;;;;;;;;5074183;28;20021;-65
2021/01/16 04:43:32;;;;;;;31.58;10.10;;;;;;;;;;5074287;28;20515;-65
2021/01/16 04:46:02;;;;;;;25.33;10.18;;;;;;;;;;5073743;28;20509;-65
2021/01/16 04:48:28;;;;;;;27.27;10.82;;;;;;;;;;5072075;28;20025;-65
2021/01/16 04:50:56;;;;;;;24.13;9.48;;;;;;;;;;5074129;28;20028;-65
2021/01/16 04:53:24;;;;;;;27.30;10.23;;;;;;;;;;5072718;28;20016;-66
2021/01/16 04:55:49;;;;;;;26.20;10.38;;;;;;;;;;5074240;28;20408;-65
2021/01/16 04:58:15;;;;;;;25.52;10.43;;;;;;;;;;5073765;28;20020;-65
2021/01/16 05:00:41;;;;;;;25.67;10.48;;;;;;;;;;5073991;28;20102;-65
2021/01/16 05:03:11;;;;;;;28.25;10.68;;;;;;;;;;5072394;28;20048;-67
2021/01/16 05:05:38;;;;;;;29.75;10.70;;;;;;;;;;5072551;28;20020;-65
2021/01/16 05:08:03;;;;;;;42.70;13.73;;;;;;;;;;5072907;28;20040;-65
2021/01/16 05:10:34;;;;;;;78.00;17.95;;;;;;;;;;5073343;28;20454;-65
2021/01/16 05:13:00;;;;;;;86.03;18.63;;;;;;;;;;5072372;28;20487;-66
2021/01/16 05:15:30;;;;;;;71.80;17.98;;;;;;;;;;5073580;28;20025;-65
2021/01/16 05:17:58;;;;;;;58.65;15.77;;;;;;;;;;5073417;28;20092;-65
2021/01/16 05:20:24;;;;;;;40.08;13.20;;;;;;;;;;5054643;28;20024;-66
2021/01/16 05:22:51;;;;;;;37.22;12.02;;;;;;;;;;5055436;28;20028;-65
2021/01/16 05:25:16;;;;;;;27.95;11.00;;;;;;;;;;5073259;28;20088;-65
2021/01/16 05:27:57;;;;;;;29.27;11.00;;;;;;;;;;5073323;28;20017;-65
2021/01/16 05:30:23;;;;;;;29.50;12.32;;;;;;;;;;5071804;28;20023;-65
2021/01/16 05:32:49;;;;;;;29.38;11.73;;;;;;;;;;5071807;28;20016;-65
2021/01/16 05:35:17;;;;;;;29.20;11.38;;;;;;;;;;5072667;28;20463;-65
2021/01/16 05:37:44;;;;;;;31.48;12.07;;;;;;;;;;5073182;28;20012;-65
2021/01/16 05:40:11;;;;;;;30.42;11.65;;;;;;;;;;5073007;28;20255;-65
2021/01/16 05:42:38;;;;;;;38.58;11.95;;;;;;;;;;5072659;28;20094;-65
2021/01/16 05:45:04;;;;;;;29.33;10.95;;;;;;;;;;5071827;28;20484;-65
2021/01/16 05:47:31;;;;;;;26.35;10.07;;;;;;;;;;5071536;28;20139;-65
2021/01/16 05:49:59;;;;;;;32.10;11.00;;;;;;;;;;5071431;28;20062;-66
2021/01/16 05:52:25;;;;;;;26.48;9.60;;;;;;;;;;5072471;28;20043;-65
2021/01/16 05:54:51;;;;;;;30.73;11.73;;;;;;;;;;5072612;28;20043;-65
2021/01/16 05:57:20;;;;;;;26.45;10.13;;;;;;;;;;5072984;28;20005;-65
2021/01/16 05:59:45;;;;;;;29.85;11.23;;;;;;;;;;5072837;28;20016;-65
2021/01/16 06:02:13;;;;;;;33.50;10.30;;;;;;;;;;5072378;28;20374;-65
2021/01/16 06:04:49;;;;;;;28.35;9.82;;;;;;;;;;5072161;28;20017;-65
2021/01/16 06:07:20;;;;;;;26.15;10.57;;;;;;;;;;5071361;28;20027;-65
2021/01/16 06:09:46;;;;;;;33.60;11.52;;;;;;;;;;5072538;28;20098;-65
2021/01/16 06:12:15;;;;;;;25.17;10.52;;;;;;;;;;5072508;28;20425;-65
2021/01/16 06:14:42;;;;;;;24.95;10.13;;;;;;;;;;5071108;28;20028;-65
2021/01/16 06:17:09;;;;;;;30.58;11.15;;;;;;;;;;5054553;28;20025;-65
2021/01/16 06:19:36;;;;;;;24.90;10.80;;;;;;;;;;5070954;28;20031;-65
2021/01/16 06:22:08;;;;;;;24.30;9.93;;;;;;;;;;5071148;28;20021;-65
2021/01/16 06:24:35;;;;;;;30.40;10.82;;;;;;;;;;5072123;28;20016;-65
2021/01/16 06:27:02;;;;;;;23.23;9.88;;;;;;;;;;5072513;28;20020;-65
2021/01/16 06:29:29;;;;;;;29.83;11.13;;;;;;;;;;5071094;28;20369;-65
2021/01/16 06:32:05;;;;;;;34.53;11.35;;;;;;;;;;5072369;28;20025;-65
2021/01/16 06:34:33;;;;;;;30.40;11.15;;;;;;;;;;5070407;28;20044;-65
2021/01/16 06:37:04;;;;;;;30.23;11.85;;;;;;;;;;5071003;28;20039;-65
2021/01/16 06:39:33;;;;;;;33.00;11.75;;;;;;;;;;5072388;28;20012;-65
2021/01/16 06:42:04;;;;;;;21.30;8.40;;;;;;;;;;5072156;28;20093;-65
2021/01/16 06:44:29;;;;;;;26.45;10.65;;;;;;;;;;5070747;28;20389;-65
2021/01/16 06:46:58;;;;;;;26.30;10.95;;;;;;;;;;5072331;28;20021;-65
2021/01/16 06:49:24;;;;;;;29.27;10.95;;;;;;;;;;5071518;28;20040;-65
2021/01/16 06:51:52;;;;;;;38.00;11.77;;;;;;;;;;5071156;28;20021;-65
2021/01/16 06:54:22;;;;;;;28.10;11.35;;;;;;;;;;5070581;28;20396;-65
2021/01/16 06:56:58;;;;;;;24.25;10.98;;;;;;;;;;5072025;28;20458;-65
2021/01/16 06:59:26;;;;;;;67.32;21.27;;;;;;;;;;5070749;28;20473;-65
2021/01/16 07:01:52;;;;;;;86.75;30.33;;;;;;;;;;5071937;28;20067;-65
2021/01/16 07:04:20;;;;;;;76.03;27.95;;;;;;;;;;5072013;28;20017;-64
2021/01/16 07:06:47;;;;;;;59.63;22.15;;;;;;;;;;5070408;28;20021;-64
2021/01/16 07:09:16;;;;;;;49.72;18.50;;;;;;;;;;5072171;28;20016;-64
2021/01/16 07:11:44;;;;;;;43.10;17.30;;;;;;;;;;5071837;28;20512;-64
2021/01/16 07:14:11;;;;;;;44.95;16.40;;;;;;;;;;5070637;28;20031;-64
2021/01/16 07:16:36;;;;;;;35.80;14.38;;;;;;;;;;5071689;28;20016;-64
2021/01/16 07:19:02;;;;;;;32.08;13.52;;;;;;;;;;5073832;28;20414;-64
2021/01/16 07:21:28;;;;;;;37.55;12.82;;;;;;;;;;5075851;28;20081;-64
2021/01/16 07:23:55;;;;;;;32.13;13.15;;;;;;;;;;5075656;28;20060;-64
2021/01/16 07:26:21;;;;;;;30.80;11.95;;;;;;;;;;5074530;28;20377;-64
2021/01/16 07:28:49;;;;;;;28.05;11.30;;;;;;;;;;5075389;28;20016;-64
2021/01/16 07:31:15;;;;;;;29.35;11.30;;;;;;;;;;5075370;28;20032;-64
2021/01/16 07:33:40;;;;;;;25.35;10.85;;;;;;;;;;5075078;28;20049;-64
2021/01/16 07:36:07;;;;;;;30.45;12.10;;;;;;;;;;5074349;28;20016;-64
2021/01/16 07:38:33;;;;;;;26.65;11.13;;;;;;;;;;5074996;28;20031;-64
2021/01/16 07:41:01;;;;;;;26.08;11.35;;;;;;;;;;5075282;28;20009;-64
2021/01/16 07:43:29;;;;;;;27.73;11.05;;;;;;;;;;5075294;28;20021;-64
2021/01/16 07:45:59;;;;;;;34.70;11.65;;;;;;;;;;5057264;28;20020;-64
2021/01/16 07:48:27;;;;;;;26.30;12.60;;;;;;;;;;5073602;28;20020;-64
2021/01/16 07:50:55;;;;;;;31.58;11.65;;;;;;;;;;5074563;28;20023;-64
2021/01/16 07:53:25;;;;;;;28.48;12.02;;;;;;;;;;5075168;28;20048;-64
2021/01/16 07:56:00;;;;;;;24.80;10.93;;;;;;;;;;5074954;28;20059;-64
2021/01/16 07:58:26;;;;;;;28.45;12.57;;;;;;;;;;5073433;28;20027;-64
2021/01/16 08:00:56;;;;;;;28.20;11.77;;;;;;;;;;5075001;28;20012;-64
2021/01/16 08:03:22;;;;;;;27.45;12.45;;;;;;;;;;5073582;28;20100;-64
2021/01/16 08:05:55;;;;;;;24.85;11.48;;;;;;;;;;5074703;28;20020;-64
2021/01/16 08:08:31;;;;;;;27.60;11.73;;;;;;;;;;5074821;28;20021;-64
2021/01/16 08:11:00;;;;;;;24.35;10.70;;;;;;;;;;5074860;28;20021;-64
2021/01/16 08:13:26;;;;;;;23.67;11.02;;;;;;;;;;5073593;28;20484;-65
2021/01/16 08:15:54;;;;;;;21.98;10.40;;;;;;;;;;5074374;28;20119;-64
2021/01/16 08:18:20;;;;;;;23.95;10.95;;;;;;;;;;5074563;28;20021;-64
2021/01/16 08:20:47;;;;;;;26.05;10.73;;;;;;;;;;5073750;28;20031;-64
2021/01/16 08:23:20;;;;;;;23.13;10.10;;;;;;;;;;5073282;28;20013;-64
2021/01/16 08:25:46;;;;;;;24.00;10.00;;;;;;;;;;5073357;28;20012;-64
2021/01/16 08:28:13;;;;;;;18.50;9.77;;;;;;;;;;5074110;28;20016;-64
2021/01/16 08:30:39;;;;;;;22.35;10.27;;;;;;;;;;5056139;28;20054;-64
2021/01/16 08:33:12;;;;;;;23.45;9.77;;;;;;;;;;5072797;28;20036;-64
2021/01/16 08:35:38;;;;;;;22.77;10.57;;;;;;;;;;5073014;28;20086;-64
2021/01/16 08:38:13;;;;;;;20.55;10.23;;;;;;;;;;5074309;28;20469;-64
2021/01/16 08:40:38;;;;;;;21.88;9.68;;;;;;;;;;5073079;28;20372;-64
2021/01/16 08:43:05;;;;;;;20.70;10.52;;;;;;;;;;5074036;28;20021;-64
2021/01/16 08:45:31;;;;;;;20.40;10.63;;;;;;;;;;5074172;28;20350;-64
2021/01/16 08:47:59;;;;;;;19.67;9.35;;;;;;;;;;5074050;28;20013;-64
2021/01/16 08:50:29;;;;;;;20.98;9.02;;;;;;;;;;5055273;28;20024;-64
2021/01/16 08:52:55;;;;;;;19.63;9.57;;;;;;;;;;5072806;28;20025;-65
2021/01/16 08:55:25;;;;;;;18.42;8.43;;;;;;;;;;5072704;28;20028;-64
2021/01/16 08:57:50;;;;;;;18.55;8.90;;;;;;;;;;5072278;28;20023;-64
2021/01/16 09:00:16;;;;;;;20.55;9.50;;;;;;;;;;5072617;28;20100;-64
2021/01/16 09:02:42;;;;;;;15.27;8.05;;;;;;;;;;5073924;28;20035;-64
2021/01/16 09:05:20;;;;;;;17.40;8.63;;;;;;;;;;5073913;28;20020;-64
2021/01/16 09:07:46;;;;;;;17.63;8.68;;;;;;;;;;5072503;28;20399;-65
2021/01/16 09:10:12;;;;;;;16.42;8.63;;;;;;;;;;5073485;28;20016;-64
2021/01/16 09:12:39;;;;;;;19.38;8.95;;;;;;;;;;5073350;28;20392;-64
2021/01/16 09:15:14;;;;;;;16.33;9.13;;;;;;;;;;5072066;28;20044;-64
2021/01/16 09:17:39;;;;;;;21.02;9.15;;;;;;;;;;5073604;28;20350;-65
2021/01/16 09:20:05;;;;;;;19.52;9.75;;;;;;;;;;5072823;28;20024;-64
2021/01/16 09:22:31;;;;;;;20.13;9.25;;;;;;;;;;5073567;28;20025;-64
2021/01/16 09:25:06;;;;;;;18.13;9.30;;;;;;;;;;5073353;28;20028;-64
2021/01/16 09:27:31;;;;;;;16.63;8.23;;;;;;;;;;5073622;28;20361;-64
2021/01/16 09:29:57;;;;;;;25.65;12.48;;;;;;;;;;5073271;28;20073;-65
2021/01/16 09:32:33;;;;;;;23.25;10.35;;;;;;;;;;5072992;28;20013;-64
2021/01/16 09:34:59;;;;;;;24.98;12.25;;;;;;;;;;5071603;28;20053;-64
2021/01/16 09:37:25;;;;;;;27.30;13.85;;;;;;;;;;5071753;28;20385;-65
2021/01/16 09:40:01;;;;;;;20.33;9.93;;;;;;;;;;5072587;28;20012;-65
2021/01/16 09:42:27;;;;;;;19.15;9.82;;;;;;;;;;5071680;28;20024;-64
2021/01/16 09:44:54;;;;;;;20.75;9.98;;;;;;;;;;5073121;28;20376;-65
2021/01/16 09:47:30;;;;;;;38.53;15.52;;;;;;;;;;5071502;28;20028;-64
2021/01/16 09:49:57;;;;;;;23.77;12.40;;;;;;;;;;5071128;28;20009;-65
2021/01/16 09:52:23;;;;;;;22.27;8.85;;;;;;;;;;5072707;28;20027;-64
2021/01/16 09:54:49;;;;;;;19.13;8.63;;;;;;;;;;5072781;28;20413;-65
2021/01/16 09:57:33;;;;;;;19.27;10.20;;;;;;;;;;5072569;28;20056;-64
2021/01/16 10:00:09;;;;;;;15.65;8.27;;;;;;;;;;5071443;28;20082;-65
2021/01/16 10:02:37;;;;;;;16.42;9.27;;;;;;;;;;5071183;28;20018;-65
2021/01/16 10:05:03;;;;;;;20.45;8.40;;;;;;;;;;5072911;28;20103;-65
2021/01/16 10:07:38;;;;;;;21.48;11.05;;;;;;;;;;5072863;28;20024;-65
2021/01/16 10:10:14;;;;;;;17.10;8.77;;;;;;;;;;5071320;28;20017;-64
2021/01/16 10:12:40;;;;;;;13.45;7.53;;;;;;;;;;5072492;28;20358;-65
2021/01/16 10:15:07;;;;;;;21.63;8.55;;;;;;;;;;5071058;28;20094;-65
2021/01/16 10:17:33;;;;;;;18.83;9.05;;;;;;;;;;5072579;28;20021;-64
2021/01/16 10:20:08;;;;;;;16.50;8.40;;;;;;;;;;5070723;28;20024;-64
2021/01/16 10:22:34;;;;;;;14.73;8.30;;;;;;;;;;5072268;28;20033;-64
2021/01/16 10:25:00;;;;;;;19.98;9.80;;;;;;;;;;5071137;28;20020;-64
2021/01/16 10:27:35;;;;;;;19.35;9.30;;;;;;;;;;5072211;28;20548;-65
2021/01/16 10:30:05;;;;;;;19.85;9.40;;;;;;;;;;5072540;28;20373;-64
2021/01/16 10:32:31;;;;;;;22.80;11.02;;;;;;;;;;5070967;28;20020;-64
2021/01/16 10:34:59;;;;;;;21.45;10.98;;;;;;;;;;5070665;28;20150;-64
2021/01/16 10:37:25;;;;;;;15.75;8.48;;;;;;;;;;5071243;28;20412;-64
2021/01/16 10:39:50;;;;;;;17.30;8.95;;;;;;;;;;5072595;28;20194;-65
2021/01/16 10:42:17;;;;;;;18.60;9.07;;;;;;;;;;5071951;28;20021;-65
2021/01/16 10:44:43;;;;;;;22.10;11.90;;;;;;;;;;5072029;28;20024;-65
2021/01/16 10:47:19;;;;;;;18.10;9.50;;;;;;;;;;5072025;28;20063;-64
2021/01/16 10:49:48;;;;;;;18.77;9.05;;;;;;;;;;5071743;28;20035;-65
2021/01/16 10:52:27;;;;;;;17.60;10.02;;;;;;;;;;5076231;28;20016;-65
2021/01/16 10:55:03;;;;;;;17.20;9.43;;;;;;;;;;5076360;28;20029;-65
2021/01/16 10:57:39;;;;;;;19.23;9.45;;;;;;;;;;5075035;28;20055;-65
2021/01/16 11:00:11;;;;;;;17.00;10.13;;;;;;;;;;5076338;28;20082;-65
2021/01/16 11:02:37;;;;;;;15.27;8.38;;;;;;;;;;5075804;28;20028;-64
2021/01/16 11:05:12;;;;;;;24.52;8.75;;;;;;;;;;5076344;28;20021;-65
2021/01/16 11:07:39;;;;;;;16.08;8.77;;;;;;;;;;5074694;28;20024;-65
2021/01/16 11:10:05;;;;;;;20.23;8.30;;;;;;;;;;5075946;28;20039;-64
2021/01/16 11:12:31;;;;;;;23.08;11.00;;;;;;;;;;5075580;28;20476;-65
2021/01/16 11:14:59;;;;;;;16.48;9.10;;;;;;;;;;5075862;28;20047;-65
2021/01/16 11:17:35;;;;;;;18.40;9.18;;;;;;;;;;5074339;28;20535;-65
2021/01/16 11:20:00;;;;;;;18.20;8.57;;;;;;;;;;5075321;28;20020;-65
2021/01/16 11:22:34;;;;;;;20.17;8.82;;;;;;;;;;5074181;28;20020;-64
2021/01/16 11:25:00;;;;;;;52.42;13.90;;;;;;;;;;5076054;28;20028;-65
2021/01/16 11:27:27;;;;;;;22.10;9.00;;;;;;;;;;5075546;28;20428;-64
2021/01/16 11:29:54;;;;;;;24.33;8.25;;;;;;;;;;5075626;28;20020;-64
2021/01/16 11:32:20;;;;;;;17.30;8.82;;;;;;;;;;5075371;28;20099;-64
2021/01/16 11:34:57;;;;;;;20.38;8.55;;;;;;;;;;5074966;28;20044;-63
2021/01/16 11:37:34;;;;;;;21.98;8.32;;;;;;;;;;5074131;28;20465;-64
2021/01/16 11:40:19;;;;;;;23.05;9.80;;;;;;;;;;5074290;28;20385;-63
2021/01/16 11:42:55;;;;;;;17.98;8.68;;;;;;;;;;5059822;28;20107;-65
2021/01/16 11:45:20;;;;;;;20.38;8.40;;;;;;;;;;5074053;28;20028;-64
2021/01/16 11:47:55;;;;;;;24.35;9.80;;;;;;;;;;5075358;28;20423;-63
2021/01/16 11:50:22;;;;;;;22.30;10.27;;;;;;;;;;5074481;28;20028;-64
2021/01/16 11:52:49;;;;;;;26.92;9.15;;;;;;;;;;5075514;28;20024;-63
2021/01/16 11:55:15;;;;;;;43.97;11.10;;;;;;;;;;5075240;28;20021;-64
2021/01/16 11:57:43;;;;;;;27.23;10.15;;;;;;;;;;5073799;28;20024;-64
2021/01/16 12:00:09;;;;;;;20.52;8.52;;;;;;;;;;5073862;28;20100;-64
2021/01/16 12:02:35;;;;;;;23.90;9.20;;;;;;;;;;5073961;28;20020;-64
2021/01/16 12:05:01;;;;;;;16.50;8.00;;;;;;;;;;5075084;28;20029;-63
2021/01/16 12:07:28;;;;;;;20.95;8.40;;;;;;;;;;5073597;28;20095;-64
2021/01/16 12:09:57;;;;;;;30.40;10.18;;;;;;;;;;5073620;28;20016;-63
2021/01/16 12:12:31;;;;;;;17.23;8.73;;;;;;;;;;5073435;28;20016;-63
2021/01/16 12:15:00;;;;;;;24.10;8.98;;;;;;;;;;5073584;28;20040;-64
2021/01/16 12:17:27;;;;;;;22.08;9.10;;;;;;;;;;5074558;28;20024;-63
2021/01/16 12:19:53;;;;;;;24.33;9.10;;;;;;;;;;5073851;28;20591;-63
2021/01/16 12:22:20;;;;;;;23.15;7.95;;;;;;;;;;5074954;28;20065;-64
2021/01/16 12:24:47;;;;;;;26.75;10.18;;;;;;;;;;5073032;28;20013;-63
2021/01/16 12:27:13;;;;;;;25.58;9.70;;;;;;;;;;5073342;28;20019;-63
2021/01/16 12:29:39;;;;;;;26.35;10.52;;;;;;;;;;5073512;28;20384;-62
2021/01/16 12:32:07;;;;;;;39.70;13.15;;;;;;;;;;5074652;28;20093;-63
2021/01/16 12:34:33;;;;;;;19.30;9.63;;;;;;;;;;5073863;28;20094;-63
2021/01/16 12:37:00;;;;;;;25.27;9.55;;;;;;;;;;5073252;28;20013;-63
2021/01/16 12:39:28;;;;;;;21.00;8.90;;;;;;;;;;5074154;28;20029;-63
2021/01/16 12:41:58;;;;;;;56.50;16.40;;;;;;;;;;5073250;28;20143;-63
2021/01/16 12:44:24;;;;;;;21.98;9.88;;;;;;;;;;5072849;28;20349;-63
2021/01/16 12:46:51;;;;;;;21.98;10.18;;;;;;;;;;5073034;28;20017;-64
2021/01/16 12:49:18;;;;;;;24.83;10.05;;;;;;;;;;5055695;28;20021;-64
2021/01/16 12:51:44;;;;;;;22.42;10.98;;;;;;;;;;5074306;28;20017;-63
2021/01/16 12:54:12;;;;;;;25.90;11.20;;;;;;;;;;5074143;28;20082;-63
2021/01/16 12:56:39;;;;;;;27.95;10.07;;;;;;;;;;5073793;28;20013;-63
2021/01/16 12:59:06;;;;;;;25.65;9.90;;;;;;;;;;5074178;28;20419;-63
2021/01/16 13:01:32;;;;;;;21.40;9.30;;;;;;;;;;5074152;28;20024;-63
2021/01/16 13:04:00;;;;;;;19.77;9.32;;;;;;;;;;5073927;28;20369;-64
2021/01/16 13:06:26;;;;;;;23.45;9.63;;;;;;;;;;5072168;28;20020;-63
2021/01/16 13:08:56;;;;;;;25.92;10.38;;;;;;;;;;5072380;28;20368;-64
2021/01/16 13:11:23;;;;;;;29.05;10.85;;;;;;;;;;5073551;28;20163;-64
2021/01/16 13:13:56;;;;;;;23.77;10.18;;;;;;;;;;5072807;28;20431;-64
2021/01/16 13:16:23;;;;;;;24.30;9.95;;;;;;;;;;5072309;28;20029;-64
2021/01/16 13:18:49;;;;;;;26.52;11.32;;;;;;;;;;5071978;28;20040;-64
2021/01/16 13:21:14;;;;;;;24.83;11.45;;;;;;;;;;5072257;28;20063;-64
2021/01/16 13:23:40;;;;;;;27.42;12.10;;;;;;;;;;5073377;28;20013;-64
2021/01/16 13:26:07;;;;;;;28.80;12.35;;;;;;;;;;5073415;28;20531;-64
2021/01/16 13:28:37;;;;;;;26.90;11.93;;;;;;;;;;5073078;28;20025;-64
2021/01/16 13:31:02;;;;;;;28.33;11.20;;;;;;;;;;5072300;28;20020;-64
2021/01/16 13:33:28;;;;;;;36.67;15.20;;;;;;;;;;5071703;28;20055;-64
2021/01/16 13:35:54;;;;;;;40.88;14.18;;;;;;;;;;5072022;28;20028;-63
2021/01/16 13:38:21;;;;;;;38.25;14.70;;;;;;;;;;5073178;28;20017;-64
2021/01/16 13:41:06;;;;;;;40.22;14.70;;;;;;;;;;5073050;28;20062;-64
2021/01/16 13:43:37;;;;;;;31.50;13.18;;;;;;;;;;5070747;28;20500;-64
2021/01/16 13:46:02;;;;;;;42.00;15.02;;;;;;;;;;5070860;28;20090;-63
2021/01/16 13:48:38;;;;;;;29.73;12.05;;;;;;;;;;5070483;28;20032;-63
2021/01/16 13:51:13;;;;;;;30.33;12.50;;;;;;;;;;5070371;28;20107;-63
2021/01/16 13:53:45;;;;;;;25.42;10.60;;;;;;;;;;5070691;28;20020;-63
2021/01/16 13:56:11;;;;;;;27.50;11.63;;;;;;;;;;5070664;28;20077;-63
2021/01/16 13:58:41;;;;;;;23.58;11.30;;;;;;;;;;5070428;28;20029;-63
2021/01/16 14:01:08;;;;;;;22.88;11.20;;;;;;;;;;5070459;28;20025;-63
2021/01/16 14:03:34;;;;;;;26.27;11.35;;;;;;;;;;5070557;28;20051;-64
2021/01/16 14:06:00;;;;;;;29.42;11.45;;;;;;;;;;5070486;28;20096;-64
2021/01/16 14:08:26;;;;;;;30.40;11.57;;;;;;;;;;5053492;28;20116;-63
2021/01/16 14:11:00;;;;;;;26.60;11.75;;;;;;;;;;5053712;28;20423;-64
2021/01/16 14:13:35;;;;;;;30.42;10.93;;;;;;;;;;5053700;28;20020;-64
2021/01/16 14:16:06;;;;;;;19.30;9.20;;;;;;;;;;5071233;28;20024;-64
2021/01/16 14:18:32;;;;;;;14.95;7.30;;;;;;;;;;5071330;28;20031;-63
2021/01/16 14:20:59;;;;;;;12.30;6.72;;;;;;;;;;5072297;28;20091;-64
2021/01/16 14:23:26;;;;;;;12.98;7.18;;;;;;;;;;5072647;28;20066;-63
2021/01/16 14:25:52;;;;;;;13.05;6.78;;;;;;;;;;5072457;28;20396;-64